createdAt,value
2017-07-04T00:00:39.763Z,89.5
2017-07-04T00:01:41.805Z,89.6
2017-07-04T00:02:43.850Z,89.6
2017-07-04T00:03:45.895Z,89.5
2017-07-04T00:04:47.938Z,89.4
2017-07-04T00:05:49.985Z,89.4
2017-07-04T00:06:52.032Z,89.4
2017-07-04T00:07:54.072Z,89.4
2017-07-04T00:08:56.122Z,89.4
2017-07-04T00:09:58.165Z,89.5
2017-07-04T00:11:00.211Z,89.4
2017-07-04T00:12:02.256Z,89.4
2017-07-04T00:13:04.298Z,89.3
2017-07-04T00:14:06.347Z,89.4
2017-07-04T00:15:08.387Z,89.4
2017-07-04T00:16:10.434Z,89.5
2017-07-04T00:17:12.477Z,89.4
2017-07-04T00:18:14.519Z,89.6
2017-07-04T00:19:16.566Z,89.6
2017-07-04T00:20:18.610Z,89.6
2017-07-04T00:21:20.656Z,89.8
2017-07-04T00:22:22.705Z,89.8
2017-07-04T00:23:24.747Z,89.8
2017-07-04T00:24:26.789Z,89.8
2017-07-04T00:25:28.831Z,89.7
2017-07-04T00:26:30.881Z,89.8
2017-07-04T00:27:32.929Z,89.8
2017-07-04T00:28:34.974Z,89.8
2017-07-04T00:29:37.022Z,89.7
2017-07-04T00:30:39.068Z,89.5
2017-07-04T00:31:41.113Z,89.5
2017-07-04T00:32:43.495Z,89.6
2017-07-04T00:33:45.544Z,89.6
2017-07-04T00:34:47.592Z,89.6
2017-07-04T00:35:49.629Z,89.6
2017-07-04T00:36:51.675Z,89.6
2017-07-04T00:37:53.722Z,89.6
2017-07-04T00:38:55.771Z,89.6
2017-07-04T00:39:57.814Z,89.6
2017-07-04T00:40:59.862Z,89.7
2017-07-04T00:42:01.905Z,89.7
2017-07-04T00:43:03.946Z,89.6
2017-07-04T00:44:06.355Z,89.6
2017-07-04T00:45:08.401Z,89.7
2017-07-04T00:46:10.449Z,89.8
2017-07-04T00:47:12.493Z,89.9
2017-07-04T00:48:14.541Z,89.9
2017-07-04T00:49:16.587Z,89.9
2017-07-04T00:50:18.628Z,89.9
2017-07-04T00:51:20.674Z,89.8
2017-07-04T00:52:22.724Z,89.7
2017-07-04T00:53:24.771Z,89.6
2017-07-04T00:54:26.812Z,89.7
2017-07-04T00:55:28.857Z,89.6
2017-07-04T00:56:30.906Z,89.6
2017-07-04T00:57:32.952Z,89.7
2017-07-04T00:58:35.000Z,89.7
2017-07-04T00:59:37.046Z,89.8
2017-07-04T01:00:39.083Z,89.7
2017-07-04T01:01:41.136Z,89.9
2017-07-04T01:02:43.177Z,89.9
2017-07-04T01:03:45.221Z,89.9
2017-07-04T01:04:47.268Z,90
2017-07-04T01:05:49.313Z,90
2017-07-04T01:06:51.355Z,90
2017-07-04T01:07:53.399Z,90
2017-07-04T01:08:55.444Z,90.1
2017-07-04T01:09:57.489Z,90.2
2017-07-04T01:10:59.531Z,90.2
2017-07-04T01:12:01.576Z,90.2
2017-07-04T01:13:03.620Z,90.2
2017-07-04T01:14:05.668Z,90.2
2017-07-04T01:15:07.714Z,90.2
2017-07-04T01:16:09.763Z,90.2
2017-07-04T01:17:11.803Z,90.1
2017-07-04T01:18:13.845Z,90.1
2017-07-04T01:19:15.887Z,90
2017-07-04T01:20:17.932Z,90
2017-07-04T01:21:19.979Z,90
2017-07-04T01:22:22.025Z,90
2017-07-04T01:23:24.066Z,90
2017-07-04T01:24:26.115Z,90
2017-07-04T01:25:28.155Z,90
2017-07-04T01:26:30.539Z,90
2017-07-04T01:27:32.583Z,90
2017-07-04T01:28:34.683Z,90
2017-07-04T01:29:36.679Z,90
2017-07-04T01:30:38.723Z,90.1
2017-07-04T01:31:40.766Z,90
2017-07-04T01:32:42.815Z,90
2017-07-04T01:33:44.856Z,90
2017-07-04T01:34:46.904Z,90
2017-07-04T01:35:48.969Z,90
2017-07-04T01:36:51.010Z,90.1
2017-07-04T01:37:53.058Z,90
2017-07-04T01:38:55.099Z,90
2017-07-04T01:39:57.147Z,90.1
2017-07-04T01:40:59.190Z,90.1
2017-07-04T01:42:01.230Z,90.1
2017-07-04T01:43:03.278Z,90.1
2017-07-04T01:44:05.321Z,90
2017-07-04T01:45:07.364Z,90
2017-07-04T01:46:09.414Z,90.1
2017-07-04T01:47:11.459Z,90.1
2017-07-04T01:48:13.506Z,90.1
2017-07-04T01:49:15.545Z,90.1
2017-07-04T01:50:17.588Z,90
2017-07-04T01:51:19.636Z,90
2017-07-04T01:52:21.678Z,90
2017-07-04T01:53:23.721Z,90
2017-07-04T01:54:25.771Z,90
2017-07-04T01:55:27.814Z,90
2017-07-04T01:56:29.855Z,90
2017-07-04T01:57:31.902Z,90
2017-07-04T01:58:33.947Z,90.1
2017-07-04T01:59:35.994Z,90.1
2017-07-04T02:00:38.034Z,90.1
2017-07-04T02:01:40.077Z,90.1
2017-07-04T02:02:42.125Z,90
2017-07-04T02:03:44.165Z,90
2017-07-04T02:04:46.209Z,90.1
2017-07-04T02:05:48.256Z,90.1
2017-07-04T02:06:50.636Z,90.1
2017-07-04T02:07:52.682Z,90.1
2017-07-04T02:08:54.724Z,90.1
2017-07-04T02:09:56.772Z,90.1
2017-07-04T02:10:58.816Z,90.1
2017-07-04T02:12:00.860Z,90.1
2017-07-04T02:13:02.899Z,90
2017-07-04T02:14:04.942Z,90
2017-07-04T02:15:06.993Z,90
2017-07-04T02:16:09.033Z,89.9
2017-07-04T02:17:11.080Z,89.9
2017-07-04T02:18:13.130Z,89.8
2017-07-04T02:19:15.175Z,89.8
2017-07-04T02:20:17.229Z,90
2017-07-04T02:21:19.266Z,90
2017-07-04T02:22:21.316Z,90
2017-07-04T02:23:23.364Z,90.1
2017-07-04T02:24:25.407Z,90.1
2017-07-04T02:25:27.454Z,90
2017-07-04T02:26:29.496Z,90
2017-07-04T02:27:31.541Z,90
2017-07-04T02:28:33.588Z,90
2017-07-04T02:29:35.993Z,90
2017-07-04T02:30:38.042Z,90
2017-07-04T02:31:40.085Z,90
2017-07-04T02:32:42.128Z,90
2017-07-04T02:33:44.519Z,90
2017-07-04T02:34:46.565Z,90
2017-07-04T02:35:48.605Z,90
2017-07-04T02:36:50.650Z,90
2017-07-04T02:37:52.691Z,90
2017-07-04T02:38:54.736Z,90
2017-07-04T02:39:56.780Z,90
2017-07-04T02:40:58.825Z,90
2017-07-04T02:42:00.874Z,90
2017-07-04T02:43:02.921Z,90.1
2017-07-04T02:44:05.295Z,90.1
2017-07-04T02:45:07.340Z,90.2
2017-07-04T02:46:09.384Z,90.1
2017-07-04T02:47:11.431Z,90.1
2017-07-04T02:48:13.477Z,90.1
2017-07-04T02:49:15.521Z,90.1
2017-07-04T02:50:17.569Z,90.1
2017-07-04T02:51:19.614Z,90.1
2017-07-04T02:52:22.006Z,90.1
2017-07-04T02:53:24.050Z,90.1
2017-07-04T02:54:26.092Z,90.1
2017-07-04T02:55:28.142Z,90.2
2017-07-04T02:56:30.184Z,90.1
2017-07-04T02:57:32.228Z,90.1
2017-07-04T02:58:34.277Z,90.1
2017-07-04T02:59:36.327Z,90.1
2017-07-04T03:00:38.713Z,90.2
2017-07-04T03:01:40.764Z,90.1
2017-07-04T03:02:42.807Z,90.2
2017-07-04T03:03:44.854Z,90.2
2017-07-04T03:04:46.897Z,90.1
2017-07-04T03:05:48.945Z,90.1
2017-07-04T03:06:50.992Z,90.1
2017-07-04T03:07:53.037Z,90.1
2017-07-04T03:08:55.082Z,90.1
2017-07-04T03:09:57.131Z,90.1
2017-07-04T03:10:59.175Z,90.1
2017-07-04T03:12:01.217Z,90
2017-07-04T03:13:03.257Z,90.1
2017-07-04T03:14:05.301Z,90.1
2017-07-04T03:15:07.343Z,90.1
2017-07-04T03:16:09.392Z,90.1
2017-07-04T03:17:11.433Z,90
2017-07-04T03:18:13.488Z,90
2017-07-04T03:19:15.528Z,90
2017-07-04T03:20:17.579Z,90.1
2017-07-04T03:21:19.627Z,90
2017-07-04T03:22:21.672Z,90.1
2017-07-04T03:23:23.721Z,90
2017-07-04T03:24:25.764Z,90.1
2017-07-04T03:25:27.810Z,90
2017-07-04T03:26:29.864Z,90.1
2017-07-04T03:27:31.907Z,90.1
2017-07-04T03:28:33.954Z,90.1
2017-07-04T03:29:36.000Z,90
2017-07-04T03:30:38.050Z,90
2017-07-04T03:31:40.130Z,90.1
2017-07-04T03:32:42.136Z,90
2017-07-04T03:33:44.184Z,90.1
2017-07-04T03:34:46.229Z,90.1
2017-07-04T03:35:48.280Z,90.1
2017-07-04T03:36:50.327Z,90
2017-07-04T03:37:52.368Z,90
2017-07-04T03:38:54.417Z,90
2017-07-04T03:39:56.461Z,90
2017-07-04T03:40:58.505Z,90.1
2017-07-04T03:42:00.555Z,90.1
2017-07-04T03:43:02.607Z,90.1
2017-07-04T03:44:04.656Z,90.1
2017-07-04T03:45:06.694Z,90.2
2017-07-04T03:46:08.741Z,90.2
2017-07-04T03:47:10.788Z,90.2
2017-07-04T03:48:12.836Z,90.1
2017-07-04T03:49:14.878Z,90.2
2017-07-04T03:50:16.923Z,90.2
2017-07-04T03:51:18.968Z,90.2
2017-07-04T03:52:21.008Z,90.2
2017-07-04T03:53:23.057Z,90.3
2017-07-04T03:54:25.106Z,90.2
2017-07-04T03:55:27.156Z,90.3
2017-07-04T03:56:29.201Z,90.3
2017-07-04T03:57:31.245Z,90.3
2017-07-04T03:58:33.294Z,90.2
2017-07-04T03:59:35.336Z,90.1
2017-07-04T04:00:37.736Z,90.1
2017-07-04T04:01:39.785Z,90.1
2017-07-04T04:02:41.827Z,90.2
2017-07-04T04:03:43.874Z,90.3
2017-07-04T04:04:45.919Z,90.2
2017-07-04T04:05:47.963Z,90.2
2017-07-04T04:06:50.009Z,90.3
2017-07-04T04:07:52.057Z,90.2
2017-07-04T04:08:54.439Z,90.2
2017-07-04T04:09:56.486Z,90.2
2017-07-04T04:10:58.537Z,90.2
2017-07-04T04:12:00.580Z,90.2
2017-07-04T04:13:02.624Z,90.2
2017-07-04T04:14:04.669Z,90.1
2017-07-04T04:15:06.722Z,90.1
2017-07-04T04:16:09.104Z,90.1
2017-07-04T04:17:11.147Z,90.1
2017-07-04T04:18:13.198Z,90.1
2017-07-04T04:19:15.248Z,90.1
2017-07-04T04:20:17.288Z,90.1
2017-07-04T04:21:19.335Z,90
2017-07-04T04:22:21.383Z,90
2017-07-04T04:23:23.429Z,89.9
2017-07-04T04:24:25.472Z,90
2017-07-04T04:25:27.527Z,90
2017-07-04T04:26:29.571Z,90
2017-07-04T04:27:31.616Z,90
2017-07-04T04:28:33.669Z,90
2017-07-04T04:29:35.709Z,90
2017-07-04T04:30:37.757Z,90
2017-07-04T04:31:39.810Z,90.1
2017-07-04T04:32:41.852Z,90.1
2017-07-04T04:33:43.902Z,90.2
2017-07-04T04:34:45.945Z,90.2
2017-07-04T04:35:48.028Z,90.1
2017-07-04T04:36:50.041Z,90
2017-07-04T04:37:52.089Z,90.1
2017-07-04T04:38:54.138Z,90
2017-07-04T04:39:56.179Z,90
2017-07-04T04:40:58.231Z,90.1
2017-07-04T04:42:00.279Z,90.1
2017-07-04T04:43:02.324Z,90.1
2017-07-04T04:44:04.370Z,90.1
2017-07-04T04:45:06.417Z,90
2017-07-04T04:46:08.465Z,90.1
2017-07-04T04:47:10.513Z,90
2017-07-04T04:48:12.557Z,90
2017-07-04T04:49:14.605Z,90
2017-07-04T04:50:16.651Z,90
2017-07-04T04:51:18.699Z,90
2017-07-04T04:52:20.748Z,90.1
2017-07-04T04:53:22.803Z,90.1
2017-07-04T04:54:24.881Z,90.1
2017-07-04T04:55:27.088Z,90.1
2017-07-04T04:56:29.181Z,90.1
2017-07-04T04:57:31.232Z,90.2
2017-07-04T04:58:33.286Z,90.2
2017-07-04T04:59:35.352Z,90.2
2017-07-04T05:00:37.395Z,90.2
2017-07-04T05:01:39.557Z,90.1
2017-07-04T05:02:41.779Z,90.1
2017-07-04T05:03:43.851Z,90.1
2017-07-04T05:04:45.939Z,90.1
2017-07-04T05:05:48.524Z,90.1
2017-07-04T05:06:52.116Z,90.2
2017-07-04T05:07:54.469Z,90.2
2017-07-04T05:08:56.945Z,90.2
2017-07-04T05:09:59.320Z,90.2
2017-07-04T05:11:01.780Z,90.3
2017-07-04T05:12:05.519Z,90.2
2017-07-04T05:13:07.800Z,90.2
2017-07-04T05:14:10.872Z,90.2
2017-07-04T05:15:15.297Z,90.2
2017-07-04T05:16:19.223Z,90.1
2017-07-04T05:17:22.697Z,90.1
2017-07-04T05:18:26.048Z,90.1
2017-07-04T05:19:31.027Z,90.1
2017-07-04T05:20:35.604Z,90.1
2017-07-04T05:21:38.580Z,90.2
2017-07-04T05:22:41.694Z,90.2
2017-07-04T05:23:44.983Z,90.2
2017-07-04T05:24:47.317Z,90.3
2017-07-04T05:25:50.371Z,90.2
2017-07-04T05:26:53.202Z,90.1
2017-07-04T05:27:56.476Z,90
2017-07-04T05:29:00.990Z,89.8
2017-07-04T05:30:06.361Z,89.9
2017-07-04T05:31:09.213Z,90
2017-07-04T05:32:11.265Z,89.9
2017-07-04T05:33:13.315Z,89.9
2017-07-04T05:34:15.437Z,89.9
2017-07-04T05:35:18.215Z,89.9
2017-07-04T05:36:20.637Z,89.7
2017-07-04T05:37:23.057Z,89.6
2017-07-04T05:38:25.601Z,89.6
2017-07-04T05:39:27.968Z,89.6
2017-07-04T05:40:30.302Z,89.6
2017-07-04T05:41:32.361Z,89.5
2017-07-04T05:42:34.447Z,89.4
2017-07-04T05:43:39.632Z,89.4
2017-07-04T05:44:42.253Z,89.4
2017-07-04T05:45:46.122Z,89.3
2017-07-04T05:46:50.821Z,89.4
2017-07-04T05:47:55.385Z,89.4
2017-07-04T05:49:00.343Z,89.5
2017-07-04T05:50:04.007Z,89.6
2017-07-04T05:51:10.108Z,89.6
2017-07-04T05:52:14.692Z,89.8
2017-07-04T05:53:19.114Z,89.7
2017-07-04T05:54:24.088Z,89.9
2017-07-04T05:55:30.736Z,89.8
2017-07-04T05:56:36.424Z,89.7
2017-07-04T05:57:43.034Z,89.6
2017-07-04T05:58:47.493Z,89.6
2017-07-04T05:59:52.694Z,89.9
2017-07-04T06:00:57.007Z,90
2017-07-04T06:02:01.773Z,90
2017-07-04T06:03:07.131Z,90
2017-07-04T06:04:13.801Z,89.9
2017-07-04T06:05:18.345Z,89.4
2017-07-04T06:06:25.308Z,89.5
2017-07-04T06:07:30.074Z,89.4
2017-07-04T06:08:37.592Z,89.6
2017-07-04T06:09:44.349Z,89.8
2017-07-04T06:10:49.290Z,89.8
2017-07-04T06:11:51.790Z,89.6
2017-07-04T06:12:56.593Z,89.4
2017-07-04T06:14:03.588Z,89.3
2017-07-04T06:15:07.662Z,89.2
2017-07-04T06:16:13.026Z,89.4
2017-07-04T06:17:17.802Z,89.3
2017-07-04T06:18:21.092Z,89.4
2017-07-04T06:19:23.562Z,89.4
2017-07-04T06:20:25.881Z,89.3
2017-07-04T06:21:28.144Z,89.4
2017-07-04T06:22:30.365Z,89.6
2017-07-04T06:23:32.425Z,89.4
2017-07-04T06:24:34.470Z,89.3
2017-07-04T06:25:36.516Z,89.2
2017-07-04T06:26:38.568Z,89.3
2017-07-04T06:27:40.618Z,89.1
2017-07-04T06:28:42.671Z,89.3
2017-07-04T06:29:44.720Z,89
2017-07-04T06:30:46.773Z,88.9
2017-07-04T06:31:48.827Z,88.9
2017-07-04T06:32:50.878Z,88.9
2017-07-04T06:33:52.932Z,89
2017-07-04T06:34:55.339Z,88.8
2017-07-04T06:35:57.375Z,88.8
2017-07-04T06:36:59.427Z,88.7
2017-07-04T06:38:01.476Z,88.6
2017-07-04T06:39:03.532Z,88.6
2017-07-04T06:40:05.588Z,88.4
2017-07-04T06:41:07.646Z,88.2
2017-07-04T06:42:09.694Z,88.2
2017-07-04T06:43:11.743Z,88.2
2017-07-04T06:44:13.802Z,88.5
2017-07-04T06:45:15.854Z,88.7
2017-07-04T06:46:17.915Z,88.7
2017-07-04T06:47:20.312Z,88.7
2017-07-04T06:48:22.362Z,88.7
2017-07-04T06:49:24.415Z,88.8
2017-07-04T06:50:26.467Z,88.9
2017-07-04T06:51:28.514Z,88.8
2017-07-04T06:52:30.567Z,88.7
2017-07-04T06:53:32.971Z,88.7
2017-07-04T06:54:35.017Z,88.7
2017-07-04T06:55:37.067Z,88.7
2017-07-04T06:56:39.113Z,88.7
2017-07-04T06:57:41.179Z,88.5
2017-07-04T06:58:43.568Z,88.3
2017-07-04T06:59:45.621Z,88.5
2017-07-04T07:00:47.673Z,88.5
2017-07-04T07:01:49.739Z,88.5
2017-07-04T07:02:51.785Z,88.7
2017-07-04T07:03:53.839Z,88.6
2017-07-04T07:04:55.888Z,88.7
2017-07-04T07:05:57.942Z,88.6
2017-07-04T07:07:00.006Z,88.6
2017-07-04T07:08:02.400Z,88.6
2017-07-04T07:09:04.452Z,88.5
2017-07-04T07:10:06.508Z,88.3
2017-07-04T07:11:08.552Z,88.2
2017-07-04T07:12:10.603Z,88.3
2017-07-04T07:13:12.657Z,88.1
2017-07-04T07:14:14.700Z,88.2
2017-07-04T07:15:16.750Z,88.2
2017-07-04T07:16:18.804Z,88.4
2017-07-04T07:17:20.857Z,88.1
2017-07-04T07:18:22.910Z,87.8
2017-07-04T07:19:24.963Z,88
2017-07-04T07:20:27.017Z,87.9
2017-07-04T07:21:29.407Z,88.1
2017-07-04T07:22:31.459Z,88.1
2017-07-04T07:23:33.505Z,88.2
2017-07-04T07:24:35.558Z,88.4
2017-07-04T07:25:37.607Z,88.6
2017-07-04T07:26:39.662Z,88.7
2017-07-04T07:27:41.709Z,88.6
2017-07-04T07:28:43.758Z,88.7
2017-07-04T07:29:45.815Z,88.7
2017-07-04T07:30:47.864Z,88.3
2017-07-04T07:31:50.263Z,88.2
2017-07-04T07:32:52.317Z,88.2
2017-07-04T07:33:54.369Z,88.1
2017-07-04T07:34:56.421Z,88
2017-07-04T07:35:58.471Z,88.1
2017-07-04T07:37:00.526Z,88
2017-07-04T07:38:02.938Z,88
2017-07-04T07:39:04.985Z,88.2
2017-07-04T07:40:07.038Z,88.1
2017-07-04T07:41:09.088Z,88
2017-07-04T07:42:11.138Z,87.6
2017-07-04T07:43:13.197Z,87.4
2017-07-04T07:44:15.245Z,87.5
2017-07-04T07:45:17.304Z,87.7
2017-07-04T07:46:19.349Z,87.7
2017-07-04T07:47:21.404Z,87.6
2017-07-04T07:48:23.458Z,87.7
2017-07-04T07:49:25.504Z,87.6
2017-07-04T07:50:27.556Z,87.5
2017-07-04T07:51:29.608Z,87.3
2017-07-04T07:52:31.663Z,87.4
2017-07-04T07:53:33.721Z,87.6
2017-07-04T07:54:35.769Z,87.4
2017-07-04T07:55:37.822Z,87.3
2017-07-04T07:56:39.876Z,87.4
2017-07-04T07:57:41.932Z,87.5
2017-07-04T07:58:43.984Z,87.4
2017-07-04T07:59:46.036Z,87.2
2017-07-04T08:00:48.088Z,86.9
2017-07-04T08:01:50.141Z,86.7
2017-07-04T08:02:52.194Z,86.7
2017-07-04T08:03:54.248Z,86.9
2017-07-04T08:04:56.301Z,87
2017-07-04T08:05:58.362Z,86.6
2017-07-04T08:07:00.411Z,86.5
2017-07-04T08:08:02.808Z,86.3
2017-07-04T08:09:04.874Z,86.2
2017-07-04T08:10:06.928Z,86.1
2017-07-04T08:11:08.984Z,86
2017-07-04T08:12:11.029Z,86.1
2017-07-04T08:13:13.084Z,86.2
2017-07-04T08:14:15.140Z,86.5
2017-07-04T08:15:17.195Z,86.7
2017-07-04T08:16:19.247Z,86.9
2017-07-04T08:17:21.309Z,86.8
2017-07-04T08:18:23.364Z,86.5
2017-07-04T08:19:25.409Z,86.4
2017-07-04T08:20:27.469Z,86.3
2017-07-04T08:21:29.523Z,86.3
2017-07-04T08:22:31.577Z,86.4
2017-07-04T08:23:33.629Z,86.6
2017-07-04T08:24:35.679Z,86.7
2017-07-04T08:25:37.734Z,86.7
2017-07-04T08:26:39.788Z,86.5
2017-07-04T08:27:41.841Z,86.5
2017-07-04T08:28:43.903Z,86.4
2017-07-04T08:29:45.951Z,86
2017-07-04T08:30:48.005Z,86
2017-07-04T08:31:50.055Z,85.7
2017-07-04T08:32:52.107Z,85.6
2017-07-04T08:33:54.163Z,85.9
2017-07-04T08:34:56.220Z,86.2
2017-07-04T08:35:58.273Z,86.3
2017-07-04T08:37:00.321Z,86
2017-07-04T08:38:02.725Z,86
2017-07-04T08:39:05.131Z,85.9
2017-07-04T08:40:07.180Z,85.7
2017-07-04T08:41:09.234Z,85.8
2017-07-04T08:42:11.287Z,86
2017-07-04T08:43:13.337Z,86.1
2017-07-04T08:44:15.396Z,86.3
2017-07-04T08:45:17.447Z,86.4
2017-07-04T08:46:19.505Z,86.4
2017-07-04T08:47:21.555Z,86.2
2017-07-04T08:48:23.611Z,86.3
2017-07-04T08:49:25.662Z,86.4
2017-07-04T08:50:27.713Z,86.4
2017-07-04T08:51:29.771Z,86
2017-07-04T08:52:31.827Z,85.8
2017-07-04T08:53:33.878Z,85.4
2017-07-04T08:54:35.931Z,85.2
2017-07-04T08:55:37.984Z,85.2
2017-07-04T08:56:40.038Z,85.1
2017-07-04T08:57:42.099Z,85.3
2017-07-04T08:58:44.153Z,85.4
2017-07-04T08:59:46.206Z,85.3
2017-07-04T09:00:48.600Z,85.5
2017-07-04T09:01:50.655Z,85.5
2017-07-04T09:02:52.706Z,85.9
2017-07-04T09:03:54.759Z,85.9
2017-07-04T09:04:56.816Z,85.6
2017-07-04T09:05:58.870Z,85.5
2017-07-04T09:07:00.917Z,85.3
2017-07-04T09:08:02.969Z,85.1
2017-07-04T09:09:05.027Z,84.9
2017-07-04T09:10:07.092Z,85
2017-07-04T09:11:09.130Z,85.2
2017-07-04T09:12:11.187Z,85.4
2017-07-04T09:13:13.237Z,85.1
2017-07-04T09:14:15.294Z,85.2
2017-07-04T09:15:17.352Z,85.4
2017-07-04T09:16:19.400Z,85.7
2017-07-04T09:17:21.454Z,85.8
2017-07-04T09:18:23.511Z,85.8
2017-07-04T09:19:25.567Z,85.9
2017-07-04T09:20:27.617Z,86
2017-07-04T09:21:29.669Z,86.2
2017-07-04T09:22:31.727Z,86
2017-07-04T09:23:33.781Z,85.4
2017-07-04T09:24:35.836Z,85
2017-07-04T09:25:37.894Z,84.8
2017-07-04T09:26:39.950Z,84.7
2017-07-04T09:27:41.998Z,84.7
2017-07-04T09:28:44.049Z,84.4
2017-07-04T09:29:46.103Z,84.5
2017-07-04T09:30:48.156Z,84.4
2017-07-04T09:31:50.215Z,84.5
2017-07-04T09:32:52.267Z,84.5
2017-07-04T09:33:54.321Z,84.4
2017-07-04T09:34:56.376Z,84.5
2017-07-04T09:35:58.430Z,84.4
2017-07-04T09:37:00.488Z,84.5
2017-07-04T09:38:02.534Z,84.6
2017-07-04T09:39:04.590Z,84.6
2017-07-04T09:40:06.646Z,84.8
2017-07-04T09:41:08.730Z,85
2017-07-04T09:42:10.754Z,84.8
2017-07-04T09:43:12.807Z,84.8
2017-07-04T09:44:14.870Z,84.6
2017-07-04T09:45:16.922Z,84.6
2017-07-04T09:46:18.974Z,84.5
2017-07-04T09:47:21.034Z,84.3
2017-07-04T09:48:23.087Z,84.1
2017-07-04T09:49:25.163Z,84
2017-07-04T09:50:27.202Z,83.9
2017-07-04T09:51:29.258Z,83.9
2017-07-04T09:52:31.315Z,84
2017-07-04T09:53:33.367Z,83.9
2017-07-04T09:54:35.426Z,83.8
2017-07-04T09:55:37.483Z,84.1
2017-07-04T09:56:39.535Z,84.7
2017-07-04T09:57:41.593Z,85.4
2017-07-04T09:58:43.989Z,86
2017-07-04T09:59:46.396Z,86.5
2017-07-04T10:00:48.454Z,86.8
2017-07-04T10:01:50.512Z,87.1
2017-07-04T10:02:52.565Z,87.2
2017-07-04T10:03:54.619Z,87.6
2017-07-04T10:04:56.674Z,87.7
2017-07-04T10:05:58.732Z,87
2017-07-04T10:07:00.785Z,86.8
2017-07-04T10:08:02.844Z,86.9
2017-07-04T10:09:04.901Z,87.3
2017-07-04T10:10:06.960Z,87.8
2017-07-04T10:11:09.019Z,87.5
2017-07-04T10:12:11.076Z,86.9
2017-07-04T10:13:13.133Z,86.4
2017-07-04T10:14:15.194Z,85.4
2017-07-04T10:15:17.245Z,84.7
2017-07-04T10:16:19.311Z,84.2
2017-07-04T10:17:21.361Z,83.7
2017-07-04T10:18:23.427Z,83.1
2017-07-04T10:19:25.482Z,82.4
2017-07-04T10:20:27.541Z,82
2017-07-04T10:21:29.601Z,81.8
2017-07-04T10:22:31.655Z,81.7
2017-07-04T10:23:33.710Z,81.7
2017-07-04T10:24:35.774Z,82.1
2017-07-04T10:25:37.826Z,82.2
2017-07-04T10:26:39.885Z,82.3
2017-07-04T10:27:42.283Z,82.5
2017-07-04T10:28:44.338Z,82.6
2017-07-04T10:29:46.399Z,82.6
2017-07-04T10:30:48.457Z,82.3
2017-07-04T10:31:50.512Z,82.3
2017-07-04T10:32:52.567Z,82.2
2017-07-04T10:33:54.628Z,82.4
2017-07-04T10:34:56.685Z,82.8
2017-07-04T10:35:58.784Z,82.9
2017-07-04T10:37:00.802Z,83
2017-07-04T10:38:02.861Z,82.8
2017-07-04T10:39:04.916Z,82.8
2017-07-04T10:40:06.974Z,82.8
2017-07-04T10:41:09.031Z,82.8
2017-07-04T10:42:11.087Z,82.7
2017-07-04T10:43:13.148Z,83
2017-07-04T10:44:15.208Z,83.1
2017-07-04T10:45:17.268Z,83
2017-07-04T10:46:19.331Z,83.6
2017-07-04T10:47:21.383Z,84.7
2017-07-04T10:48:23.447Z,85.2
2017-07-04T10:49:25.499Z,85.3
2017-07-04T10:50:27.558Z,85.3
2017-07-04T10:51:29.612Z,85.8
2017-07-04T10:52:31.673Z,84.9
2017-07-04T10:53:33.730Z,83.8
2017-07-04T10:54:35.786Z,83.4
2017-07-04T10:55:37.845Z,82.6
2017-07-04T10:56:39.907Z,82.2
2017-07-04T10:57:41.960Z,81.9
2017-07-04T10:58:44.021Z,81.8
2017-07-04T10:59:46.079Z,81.7
2017-07-04T11:00:48.138Z,81.8
2017-07-04T11:01:50.192Z,81.7
2017-07-04T11:02:52.252Z,81.7
2017-07-04T11:03:54.307Z,81.7
2017-07-04T11:04:56.371Z,81.7
2017-07-04T11:05:58.426Z,81.6
2017-07-04T11:07:00.482Z,81.6
2017-07-04T11:08:02.541Z,81.6
2017-07-04T11:09:04.596Z,81.5
2017-07-04T11:10:06.656Z,81.4
2017-07-04T11:11:08.715Z,81.3
2017-07-04T11:12:10.772Z,81.2
2017-07-04T11:13:12.834Z,81.2
2017-07-04T11:14:14.887Z,81.2
2017-07-04T11:15:17.288Z,81.2
2017-07-04T11:16:19.346Z,81.7
2017-07-04T11:17:21.742Z,82.1
2017-07-04T11:18:23.804Z,82.2
2017-07-04T11:19:25.856Z,82.7
2017-07-04T11:20:27.911Z,83.2
2017-07-04T11:21:29.969Z,83.5
2017-07-04T11:22:32.023Z,83.4
2017-07-04T11:23:34.084Z,83.7
2017-07-04T11:24:36.140Z,84.2
2017-07-04T11:25:38.196Z,84.5
2017-07-04T11:26:40.254Z,84.6
2017-07-04T11:27:42.314Z,83.3
2017-07-04T11:28:44.372Z,82.5
2017-07-04T11:29:46.429Z,82.5
2017-07-04T11:30:48.490Z,81.8
2017-07-04T11:31:50.538Z,81.3
2017-07-04T11:32:52.580Z,80.8
2017-07-04T11:33:54.624Z,80.3
2017-07-04T11:34:56.653Z,80.1
2017-07-04T11:35:58.700Z,80
2017-07-04T11:37:00.754Z,80
2017-07-04T11:38:02.789Z,80.3
2017-07-04T11:39:04.828Z,80.4
2017-07-04T11:40:06.864Z,80.4
2017-07-04T11:41:08.902Z,81
2017-07-04T11:42:10.950Z,81.5
2017-07-04T11:43:12.995Z,81.5
2017-07-04T11:44:15.035Z,81.6
2017-07-04T11:45:17.058Z,81.7
2017-07-04T11:46:19.098Z,81.7
2017-07-04T11:47:21.142Z,81.6
2017-07-04T11:48:23.188Z,80.9
2017-07-04T11:49:25.913Z,80.9
2017-07-04T11:50:27.991Z,81
2017-07-04T11:51:30.034Z,81.4
2017-07-04T11:52:32.082Z,81.5
2017-07-04T11:53:34.152Z,81.1
2017-07-04T11:54:36.193Z,80.7
2017-07-04T11:55:38.226Z,80.2
2017-07-04T11:56:40.284Z,80.1
2017-07-04T11:57:42.317Z,80
2017-07-04T11:58:44.347Z,80
2017-07-04T11:59:46.437Z,80.2
2017-07-04T12:00:48.470Z,81.4
2017-07-04T12:01:50.520Z,81.6
2017-07-04T12:02:52.555Z,81.4
2017-07-04T12:03:54.582Z,80.8
2017-07-04T12:04:56.964Z,80.3
2017-07-04T12:05:59.000Z,80.2
2017-07-04T12:07:01.045Z,80.1
2017-07-04T12:08:03.079Z,79.8
2017-07-04T12:09:05.105Z,79.9
2017-07-04T12:10:07.141Z,79.6
2017-07-04T12:11:09.173Z,79.5
2017-07-04T12:12:11.204Z,79.6
2017-07-04T12:13:13.241Z,80
2017-07-04T12:14:15.281Z,79.8
2017-07-04T12:15:17.312Z,79.7
2017-07-04T12:16:19.344Z,79.5
2017-07-04T12:17:21.376Z,79.7
2017-07-04T12:18:23.418Z,79.6
2017-07-04T12:19:25.457Z,79.7
2017-07-04T12:20:27.484Z,79.6
2017-07-04T12:21:29.519Z,79.5
2017-07-04T12:22:31.556Z,79.2
2017-07-04T12:23:33.603Z,79.1
2017-07-04T12:24:35.689Z,79.1
2017-07-04T12:25:37.723Z,79.1
2017-07-04T12:26:40.101Z,79
2017-07-04T12:27:42.138Z,78.9
2017-07-04T12:28:44.168Z,78.7
2017-07-04T12:29:46.212Z,78.6
2017-07-04T12:30:48.242Z,78.8
2017-07-04T12:31:50.276Z,78.6
2017-07-04T12:32:52.309Z,78.3
2017-07-04T12:33:54.345Z,78.3
2017-07-04T12:34:56.382Z,78.2
2017-07-04T12:35:58.452Z,78.5
2017-07-04T12:37:00.496Z,78.8
2017-07-04T12:38:02.538Z,78.7
2017-07-04T12:39:04.573Z,78.7
2017-07-04T12:40:06.606Z,78.7
2017-07-04T12:41:08.639Z,78.4
2017-07-04T12:42:10.681Z,78.4
2017-07-04T12:43:12.715Z,78.2
2017-07-04T12:44:14.742Z,78.2
2017-07-04T12:45:16.778Z,78.2
2017-07-04T12:46:18.813Z,78.4
2017-07-04T12:47:20.847Z,78.6
2017-07-04T12:48:22.883Z,78.8
2017-07-04T12:49:24.921Z,78.9
2017-07-04T12:50:26.961Z,79
2017-07-04T12:51:28.990Z,79
2017-07-04T12:52:31.026Z,79
2017-07-04T12:53:33.070Z,79.2
2017-07-04T12:54:35.104Z,79.3
2017-07-04T12:55:37.142Z,79
2017-07-04T12:56:39.185Z,79
2017-07-04T12:57:41.214Z,79.2
2017-07-04T12:58:43.251Z,78.9
2017-07-04T12:59:45.293Z,79.2
2017-07-04T13:00:47.327Z,78.9
2017-07-04T13:01:49.365Z,78.7
2017-07-04T13:02:51.404Z,77.9
2017-07-04T13:03:53.441Z,77.1
2017-07-04T13:04:55.469Z,77.1
2017-07-04T13:05:57.500Z,77
2017-07-04T13:06:59.541Z,77.1
2017-07-04T13:08:01.589Z,77
2017-07-04T13:09:03.621Z,76.9
2017-07-04T13:10:05.662Z,76.4
2017-07-04T13:11:07.700Z,76
2017-07-04T13:12:09.729Z,75.8
2017-07-04T13:13:11.770Z,75.8
2017-07-04T13:14:13.811Z,76
2017-07-04T13:15:16.193Z,76.2
2017-07-04T13:16:18.223Z,76.4
2017-07-04T13:17:20.270Z,76.2
2017-07-04T13:18:22.320Z,76.1
2017-07-04T13:19:24.348Z,76.2
2017-07-04T13:20:26.387Z,76.2
2017-07-04T13:21:28.421Z,76.2
2017-07-04T13:22:30.461Z,76.2
2017-07-04T13:23:32.505Z,76.1
2017-07-04T13:24:34.529Z,76.2
2017-07-04T13:25:36.580Z,76.3
2017-07-04T13:26:38.620Z,76.6
2017-07-04T13:27:40.654Z,77
2017-07-04T13:28:42.694Z,77
2017-07-04T13:29:44.726Z,76.9
2017-07-04T13:30:46.765Z,77
2017-07-04T13:31:48.799Z,77.4
2017-07-04T13:32:50.846Z,77.5
2017-07-04T13:33:52.889Z,77.6
2017-07-04T13:34:54.922Z,77.6
2017-07-04T13:35:56.958Z,76.9
2017-07-04T13:36:59.001Z,76.7
2017-07-04T13:38:01.040Z,76.2
2017-07-04T13:39:03.084Z,75.9
2017-07-04T13:40:05.126Z,75.9
2017-07-04T13:41:07.167Z,75.8
2017-07-04T13:42:09.200Z,75.6
2017-07-04T13:43:11.247Z,75.7
2017-07-04T13:44:13.281Z,75.9
2017-07-04T13:45:15.325Z,75.9
2017-07-04T13:46:17.360Z,75.7
2017-07-04T13:47:19.401Z,75.6
2017-07-04T13:48:21.442Z,75.4
2017-07-04T13:49:23.484Z,75.3
2017-07-04T13:50:25.526Z,75.4
2017-07-04T13:51:27.567Z,75.4
2017-07-04T13:52:29.598Z,75
2017-07-04T13:53:32.007Z,74.6
2017-07-04T13:54:34.052Z,74
2017-07-04T13:55:36.087Z,73.2
2017-07-04T13:56:38.128Z,72.4
2017-07-04T13:57:40.173Z,72.3
2017-07-04T13:58:42.212Z,72.3